Little Meadows, Pennsylvania
Current Conditions -  °F | °C
As of 4:53 AM on Friday 24 Oct 2014 (Local Time) from KBGM Reporting Station
Overcast Overcast  
Wind Chill: 38°   Ceiling: 1500
Heat Index: 45°   Visibility: 10mi
Dew Point: 41°   Wind: 15mph
Humidity: 86%   Direction: 340°NNW
Pressure: 29.89"   Gusts: NA
Location:  41.99°N, 76.13°W
Report Text: KBGM 240853Z AUTO 34013KT 10SM BKN015 BKN033 OVC046 07/05 A2989 RMK AO2 SLP129 T00720050 53005
Loading
Personal Weather Stations






























Interactive Weather Map
Tropical Storm Tracking
New forecast layout! Learn more

10-Day Weather Forecast

Advertisements
Track Severe Weather on mobile